Terminal Aerodrome Forecast
Issued by NWS

Home | Current Version | Previous Version | Text Only | Print | Product List | Glossary On
Versions: 1 2 3 4 5 6 7 8 9 10 11 12 13 14 15 16
000
FTPQ31 PGUM 131133
TAFGUM
TAF

TAF
PTKK 131133Z 1312/1412 08011KT P6SM VCSH SCT012 SCT045 BKN120
     FM131600 08011KT P6SM VCTS SCT012CB BKN045 OVC110=

USA.gov is the U.S. government's official web portal to all federal, state and local government web resources and services.